createdAt,value
2018-11-27T00:01:17.613Z,72.29
2018-11-27T00:03:52.106Z,71.50
2018-11-27T00:06:22.063Z,72.59
2018-11-27T00:08:51.363Z,72.14
2018-11-27T00:11:21.131Z,71.69
2018-11-27T00:13:50.412Z,71.26
2018-11-27T00:16:19.934Z,71.91
2018-11-27T00:18:49.453Z,72.02
2018-11-27T00:21:18.901Z,71.36
2018-11-27T00:23:48.182Z,71.76
2018-11-27T00:26:17.727Z,71.34
2018-11-27T00:28:47.871Z,71.04
2018-11-27T00:31:17.159Z,71.33
2018-11-27T00:33:46.472Z,71.84
2018-11-27T00:36:16.005Z,72.44
2018-11-27T00:38:45.510Z,72.43
2018-11-27T00:41:14.985Z,72.58
2018-11-27T00:43:44.352Z,72.36
2018-11-27T00:46:20.149Z,71.72
2018-11-27T00:48:49.648Z,71.53
2018-11-27T00:51:19.190Z,72.35
2018-11-27T00:53:48.455Z,72.38
2018-11-27T00:56:17.933Z,72.27
2018-11-27T00:58:47.232Z,71.89
2018-11-27T01:01:16.528Z,72.78
2018-11-27T01:03:45.908Z,73.45
2018-11-27T01:06:15.198Z,73.09
2018-11-27T01:08:44.525Z,72.99
2018-11-27T01:11:14.344Z,72.79
2018-11-27T01:13:43.721Z,72.43
2018-11-27T01:16:13.009Z,72.08
2018-11-27T01:18:42.314Z,72.94
2018-11-27T01:21:11.603Z,73.61
2018-11-27T01:23:40.880Z,72.12
2018-11-27T01:26:10.615Z,72.55
2018-11-27T01:28:40.073Z,73.08
2018-11-27T01:31:09.381Z,73.58
2018-11-27T01:33:38.878Z,73.71
2018-11-27T01:36:08.527Z,72.86
2018-11-27T01:38:37.812Z,73.67
2018-11-27T01:41:07.717Z,73.57
2018-11-27T01:43:37.543Z,72.79
2018-11-27T01:46:06.894Z,72.78
2018-11-27T01:48:36.777Z,72.95
2018-11-27T01:51:06.268Z,72.96
2018-11-27T01:53:35.664Z,73.11
2018-11-27T01:56:05.457Z,72.14
2018-11-27T01:58:34.770Z,72.42
2018-11-27T02:01:04.022Z,72.93
2018-11-27T02:03:33.421Z,73.02
2018-11-27T02:06:02.932Z,72.87
2018-11-27T02:08:32.573Z,73.42
2018-11-27T02:11:01.964Z,74.16
2018-11-27T02:13:31.438Z,74.04
2018-11-27T02:16:00.677Z,73.80
2018-11-27T02:18:30.628Z,73.21
2018-11-27T02:20:59.951Z,73.62
2018-11-27T02:23:29.565Z,73.65
2018-11-27T02:25:58.829Z,73.90
2018-11-27T02:28:28.276Z,74.26
2018-11-27T02:30:57.774Z,74.24
2018-11-27T02:33:28.343Z,73.70
2018-11-27T02:35:57.830Z,73.85
2018-11-27T02:38:27.168Z,74.23
2018-11-27T02:40:56.813Z,73.75
2018-11-27T02:43:26.149Z,74.90
2018-11-27T02:45:55.688Z,74.58
2018-11-27T02:48:25.022Z,74.63
2018-11-27T02:50:54.463Z,74.74
2018-11-27T02:53:24.140Z,74.58
2018-11-27T02:55:53.721Z,75.00
2018-11-27T02:58:22.987Z,74.41
2018-11-27T03:00:52.498Z,74.39
2018-11-27T03:03:21.918Z,74.56
2018-11-27T03:05:51.192Z,74.73
2018-11-27T03:08:20.485Z,74.49
2018-11-27T03:10:49.772Z,75.20
2018-11-27T03:13:19.049Z,74.93
2018-11-27T03:15:48.322Z,74.93
2018-11-27T03:18:17.619Z,74.51
2018-11-27T03:20:46.841Z,75.03
2018-11-27T03:23:16.193Z,75.45
2018-11-27T03:25:48.863Z,75.66
2018-11-27T03:28:18.504Z,75.22
2018-11-27T03:30:47.804Z,75.22
2018-11-27T03:33:17.202Z,75.02
2018-11-27T03:35:47.333Z,74.65
2018-11-27T03:38:16.572Z,75.33
2018-11-27T03:40:45.866Z,74.77
2018-11-27T03:43:15.296Z,75.95
2018-11-27T03:45:44.874Z,75.64
2018-11-27T03:48:14.432Z,75.43
2018-11-27T03:50:43.813Z,75.63
2018-11-27T03:53:13.315Z,76.08
2018-11-27T03:55:42.758Z,74.92
2018-11-27T03:58:12.099Z,75.09
2018-11-27T04:00:41.368Z,74.77
2018-11-27T04:03:13.801Z,74.99
2018-11-27T04:05:44.534Z,74.61
2018-11-27T04:08:13.788Z,75.14
2018-11-27T04:10:43.746Z,74.94
2018-11-27T04:13:13.024Z,74.74
2018-11-27T04:15:42.388Z,75.52
2018-11-27T04:18:12.349Z,75.14
2018-11-27T04:20:41.838Z,75.21
2018-11-27T04:23:11.104Z,73.81
2018-11-27T04:25:40.515Z,74.84
2018-11-27T04:28:09.829Z,74.70
2018-11-27T04:30:39.256Z,74.30
2018-11-27T04:33:08.918Z,74.27
2018-11-27T04:35:38.439Z,74.49
2018-11-27T04:38:07.869Z,74.46
2018-11-27T04:40:37.235Z,74.68
2018-11-27T04:43:07.062Z,74.09
2018-11-27T04:45:36.318Z,74.07
2018-11-27T04:48:05.770Z,73.70
2018-11-27T04:50:35.443Z,73.64
2018-11-27T04:53:04.943Z,79.90
2018-11-27T04:55:34.875Z,79.40
2018-11-27T04:58:04.338Z,77.44
2018-11-27T05:00:34.041Z,76.79
2018-11-27T05:03:03.518Z,77.37
2018-11-27T05:05:32.797Z,77.17
2018-11-27T05:08:02.302Z,77.36
2018-11-27T05:10:31.612Z,78.08
2018-11-27T05:13:00.994Z,75.45
2018-11-27T05:15:30.635Z,73.90
2018-11-27T05:18:00.529Z,74.24
2018-11-27T05:20:29.962Z,74.05
2018-11-27T05:22:59.216Z,72.74
2018-11-27T05:25:29.340Z,73.04
2018-11-27T05:27:59.002Z,73.40
2018-11-27T05:30:29.658Z,73.06
2018-11-27T05:32:59.235Z,73.20
2018-11-27T05:35:30.642Z,73.51
2018-11-27T05:38:02.123Z,74.37
2018-11-27T05:40:31.512Z,74.53
2018-11-27T05:43:06.622Z,73.80
2018-11-27T05:45:35.923Z,73.57
2018-11-27T05:48:05.581Z,73.84
2018-11-27T05:50:34.953Z,73.81
2018-11-27T05:53:05.620Z,74.50
2018-11-27T05:55:35.532Z,73.97
2018-11-27T05:58:05.051Z,73.98
2018-11-27T06:00:34.385Z,73.76
2018-11-27T06:03:03.831Z,73.47
2018-11-27T06:05:33.406Z,73.09
2018-11-27T06:08:02.724Z,72.87
2018-11-27T06:10:32.223Z,73.35
2018-11-27T06:13:01.671Z,73.42
2018-11-27T06:15:31.291Z,73.99
2018-11-27T06:18:03.281Z,73.56
2018-11-27T06:20:33.468Z,73.87
2018-11-27T06:23:02.798Z,74.47
2018-11-27T06:25:33.269Z,74.40
2018-11-27T06:28:08.637Z,74.43
2018-11-27T06:30:37.908Z,73.82
2018-11-27T06:33:07.721Z,73.50
2018-11-27T06:35:40.701Z,73.39
2018-11-27T06:38:12.120Z,73.92
2018-11-27T06:40:42.782Z,73.88
2018-11-27T06:43:13.258Z,73.90
2018-11-27T06:45:44.313Z,73.85
2018-11-27T06:48:13.664Z,73.83
2018-11-27T06:50:42.929Z,74.73
2018-11-27T06:53:13.622Z,73.61
2018-11-27T06:55:42.943Z,74.17
2018-11-27T06:58:12.433Z,74.20
2018-11-27T07:00:41.877Z,74.02
2018-11-27T07:03:14.184Z,73.97
2018-11-27T07:05:43.471Z,73.82
2018-11-27T07:08:12.722Z,74.16
2018-11-27T07:10:44.485Z,73.90
2018-11-27T07:13:19.631Z,73.88
2018-11-27T07:15:50.333Z,74.38
2018-11-27T07:18:19.738Z,74.02
2018-11-27T07:20:48.998Z,72.92
2018-11-27T07:23:18.330Z,72.40
2018-11-27T07:25:47.618Z,71.93
2018-11-27T07:28:16.917Z,72.58
2018-11-27T07:30:46.615Z,72.43
2018-11-27T07:33:15.911Z,71.81
2018-11-27T07:35:45.277Z,71.03
2018-11-27T07:38:14.601Z,70.76
2018-11-27T07:40:44.067Z,70.18
2018-11-27T07:43:14.206Z,71.09
2018-11-27T07:45:43.604Z,70.82
2018-11-27T07:48:12.885Z,70.27
2018-11-27T07:50:42.288Z,70.39
2018-11-27T07:53:12.000Z,69.13
2018-11-27T07:55:42.194Z,69.82
2018-11-27T07:58:11.921Z,70.30
2018-11-27T08:00:41.370Z,69.86
2018-11-27T08:03:10.742Z,68.75
2018-11-27T08:05:42.175Z,68.56
2018-11-27T08:08:18.518Z,67.26
2018-11-27T08:10:49.405Z,67.11
2018-11-27T08:13:18.834Z,65.82
2018-11-27T08:15:48.458Z,66.04
2018-11-27T08:18:17.913Z,65.92
2018-11-27T08:20:47.451Z,63.83
2018-11-27T08:23:17.222Z,64.31
2018-11-27T08:25:46.519Z,63.93
2018-11-27T08:28:15.822Z,63.49
2018-11-27T08:30:45.393Z,62.93
2018-11-27T08:33:14.941Z,62.78
2018-11-27T08:35:44.275Z,62.41
2018-11-27T08:38:13.780Z,62.25
2018-11-27T08:40:43.482Z,61.48
2018-11-27T08:43:12.772Z,60.74
2018-11-27T08:45:42.339Z,60.11
2018-11-27T08:48:12.564Z,59.19
2018-11-27T08:50:42.915Z,58.61
2018-11-27T08:53:12.256Z,58.09
2018-11-27T08:55:44.515Z,57.81
2018-11-27T08:58:20.366Z,56.73
2018-11-27T09:00:50.027Z,57.71
2018-11-27T09:03:19.918Z,55.48
2018-11-27T09:05:49.394Z,54.74
2018-11-27T09:08:18.999Z,54.07
2018-11-27T09:10:48.323Z,53.52
2018-11-27T09:13:17.762Z,53.72
2018-11-27T09:15:47.082Z,52.55
2018-11-27T09:18:25.897Z,53.03
2018-11-27T09:20:55.197Z,52.61
2018-11-27T09:23:24.588Z,55.32
2018-11-27T09:25:53.990Z,53.77
2018-11-27T09:28:23.808Z,52.92
2018-11-27T09:30:53.464Z,54.42
2018-11-27T09:33:22.987Z,54.37
2018-11-27T09:35:53.277Z,53.24
2018-11-27T09:38:22.577Z,54.45
2018-11-27T09:40:52.414Z,53.64
2018-11-27T09:43:21.857Z,53.73
2018-11-27T09:45:51.500Z,52.59
2018-11-27T09:48:20.787Z,52.29
2018-11-27T09:50:51.125Z,52.18
2018-11-27T09:53:20.587Z,52.49
2018-11-27T09:55:50.590Z,52.62
2018-11-27T09:58:19.943Z,52.31
2018-11-27T10:00:49.278Z,51.45
2018-11-27T10:03:18.648Z,50.36
2018-11-27T10:05:47.967Z,51.40
2018-11-27T10:08:17.248Z,51.95
2018-11-27T10:10:46.620Z,52.69
2018-11-27T10:13:16.233Z,54.10
2018-11-27T10:15:45.513Z,53.61
2018-11-27T10:18:14.811Z,52.96
2018-11-27T10:20:44.297Z,53.39
2018-11-27T10:23:15.545Z,54.41
2018-11-27T10:25:44.940Z,54.33
2018-11-27T10:28:14.273Z,53.60
2018-11-27T10:30:43.592Z,53.17
2018-11-27T10:33:13.757Z,53.56
2018-11-27T10:35:51.963Z,53.50
2018-11-27T10:38:21.370Z,52.02
2018-11-27T10:40:50.959Z,50.73
2018-11-27T10:43:20.302Z,48.11
2018-11-27T10:45:49.657Z,47.46
2018-11-27T10:48:19.238Z,47.38
2018-11-27T10:50:48.758Z,47.13
2018-11-27T10:53:18.412Z,47.07
2018-11-27T10:55:47.930Z,45.59
2018-11-27T10:58:17.571Z,45.32
2018-11-27T11:00:52.130Z,44.27
2018-11-27T11:03:37.924Z,44.77
2018-11-27T11:06:08.871Z,44.46
2018-11-27T11:08:38.186Z,45.19
2018-11-27T11:11:08.667Z,44.54
2018-11-27T11:13:38.396Z,44.51
2018-11-27T11:16:08.441Z,44.60
2018-11-27T11:18:38.016Z,42.86
2018-11-27T11:21:08.092Z,42.64
2018-11-27T11:23:37.357Z,43.23
2018-11-27T11:26:07.491Z,43.43
2018-11-27T11:28:36.853Z,44.05
2018-11-27T11:31:07.002Z,45.66
2018-11-27T11:33:36.339Z,46.80
2018-11-27T11:36:06.430Z,46.46
2018-11-27T11:38:36.188Z,47.22
2018-11-27T11:41:06.470Z,45.73
2018-11-27T11:43:35.901Z,42.56
2018-11-27T11:46:05.731Z,41.54
2018-11-27T11:48:35.196Z,38.50
2018-11-27T11:51:04.906Z,37.16
2018-11-27T11:53:34.252Z,35.93
2018-11-27T11:56:03.590Z,35.20
2018-11-27T11:58:33.579Z,36.06
2018-11-27T12:01:02.937Z,34.69
2018-11-27T12:03:32.218Z,34.82
2018-11-27T12:06:01.755Z,32.93
2018-11-27T12:08:31.273Z,34.47
2018-11-27T12:11:00.569Z,36.96
2018-11-27T12:13:30.122Z,35.22
2018-11-27T12:15:59.403Z,32.22
2018-11-27T12:18:28.698Z,31.14
2018-11-27T12:20:58.535Z,31.75
2018-11-27T12:23:28.078Z,33.61
2018-11-27T12:25:57.346Z,32.71
2018-11-27T12:28:26.716Z,32.99
2018-11-27T12:30:56.205Z,34.92
2018-11-27T12:33:25.516Z,38.46
2018-11-27T12:35:54.831Z,40.77
2018-11-27T12:38:24.180Z,42.31
2018-11-27T12:40:53.488Z,42.44
2018-11-27T12:43:23.180Z,40.45
2018-11-27T12:45:52.482Z,40.45
2018-11-27T12:48:21.789Z,40.14
2018-11-27T12:50:51.159Z,41.74
2018-11-27T12:53:20.475Z,41.09
2018-11-27T12:55:51.335Z,41.93
2018-11-27T12:58:20.702Z,42.04
2018-11-27T13:00:50.326Z,41.63
2018-11-27T13:03:19.781Z,42.54
2018-11-27T13:05:56.447Z,43.61
2018-11-27T13:08:25.957Z,44.07
2018-11-27T13:10:55.267Z,43.09
2018-11-27T13:13:24.789Z,42.08
2018-11-27T13:15:54.283Z,42.49
2018-11-27T13:18:23.900Z,42.06
2018-11-27T13:20:53.586Z,42.91
2018-11-27T13:23:22.879Z,42.45
2018-11-27T13:25:52.315Z,44.92
2018-11-27T13:28:22.249Z,46.48
2018-11-27T13:31:12.981Z,46.89
2018-11-27T13:34:20.893Z,46.15
2018-11-27T13:36:50.347Z,47.74
2018-11-27T13:39:34.270Z,49.77
2018-11-27T13:42:03.615Z,48.91
2018-11-27T13:44:33.512Z,49.23
2018-11-27T13:47:03.258Z,50.45
2018-11-27T13:49:32.492Z,50.23
2018-11-27T13:52:01.823Z,50.46
2018-11-27T13:54:31.168Z,50.67
2018-11-27T13:57:00.462Z,53.04
2018-11-27T13:59:29.826Z,53.15
2018-11-27T14:01:59.193Z,54.14
2018-11-27T14:04:28.518Z,54.34
2018-11-27T14:06:58.004Z,54.06
2018-11-27T14:09:27.573Z,53.94
2018-11-27T14:11:56.867Z,54.60
2018-11-27T14:14:26.169Z,54.86
2018-11-27T14:16:55.533Z,55.93
2018-11-27T14:19:24.874Z,57.64
2018-11-27T14:21:54.149Z,57.50
2018-11-27T14:24:23.512Z,58.87
2018-11-27T14:26:52.843Z,57.63
2018-11-27T14:29:22.472Z,57.97
2018-11-27T14:31:51.982Z,58.34
2018-11-27T14:34:21.267Z,58.49
2018-11-27T14:36:50.571Z,58.89
2018-11-27T14:39:20.066Z,58.40
2018-11-27T14:41:49.364Z,59.60
2018-11-27T14:44:18.664Z,59.75
2018-11-27T14:46:47.975Z,60.27
2018-11-27T14:49:17.221Z,60.17
2018-11-27T14:51:46.558Z,59.70
2018-11-27T14:54:16.248Z,60.32
2018-11-27T14:56:45.594Z,61.35
2018-11-27T14:59:14.880Z,62.03
2018-11-27T15:01:44.222Z,63.00
2018-11-27T15:04:13.513Z,63.60
2018-11-27T15:06:42.841Z,63.28
2018-11-27T15:09:12.148Z,65.19
2018-11-27T15:11:41.479Z,65.48
2018-11-27T15:14:10.787Z,65.95
2018-11-27T15:16:40.800Z,66.03
2018-11-27T15:19:10.170Z,65.68
2018-11-27T15:21:40.260Z,65.99
2018-11-27T15:24:09.609Z,66.16
2018-11-27T15:26:38.874Z,67.78
2018-11-27T15:29:08.208Z,67.35
2018-11-27T15:31:37.493Z,67.98
2018-11-27T15:34:07.237Z,68.34
2018-11-27T15:36:37.120Z,68.76
2018-11-27T15:39:10.148Z,67.67
2018-11-27T15:41:39.589Z,68.68
2018-11-27T15:44:08.932Z,68.74
2018-11-27T15:46:38.285Z,68.37
2018-11-27T15:49:07.673Z,68.87
2018-11-27T15:51:37.057Z,68.04
2018-11-27T15:54:06.757Z,68.85
2018-11-27T15:56:36.089Z,69.06
2018-11-27T15:59:05.554Z,68.44
2018-11-27T16:01:35.131Z,68.00
2018-11-27T16:04:04.532Z,68.42
2018-11-27T16:06:33.962Z,67.03
2018-11-27T16:09:03.309Z,67.42
2018-11-27T16:11:32.707Z,67.70
2018-11-27T16:14:02.057Z,67.75
2018-11-27T16:16:32.361Z,66.67
2018-11-27T16:19:01.733Z,66.88
2018-11-27T16:21:31.046Z,67.95
2018-11-27T16:24:00.477Z,65.31
2018-11-27T16:26:29.803Z,65.83
2018-11-27T16:28:59.251Z,66.28
2018-11-27T16:31:28.613Z,65.43
2018-11-27T16:33:57.927Z,65.76
2018-11-27T16:36:27.237Z,65.11
2018-11-27T16:38:56.775Z,65.37
2018-11-27T16:41:26.150Z,65.28
2018-11-27T16:43:55.520Z,64.91
2018-11-27T16:46:25.242Z,65.58
2018-11-27T16:48:54.523Z,65.49
2018-11-27T16:51:23.845Z,64.94
2018-11-27T16:53:53.274Z,65.69
2018-11-27T16:56:22.623Z,65.45
2018-11-27T16:58:51.946Z,65.54
2018-11-27T17:01:21.343Z,66.00
2018-11-27T17:03:50.683Z,66.06
2018-11-27T17:06:19.998Z,66.21
2018-11-27T17:08:49.589Z,65.63
2018-11-27T17:11:18.925Z,66.34
2018-11-27T17:13:48.240Z,65.73
2018-11-27T17:16:17.578Z,65.13
2018-11-27T17:18:46.861Z,64.71
2018-11-27T17:21:16.213Z,65.02
2018-11-27T17:23:45.559Z,64.87
2018-11-27T17:26:14.868Z,64.88
2018-11-27T17:28:44.214Z,65.22
2018-11-27T17:31:15.989Z,64.17
2018-11-27T17:33:57.309Z,63.70
2018-11-27T17:36:26.772Z,63.99
2018-11-27T17:38:56.117Z,63.98
2018-11-27T17:41:25.453Z,63.66
2018-11-27T17:43:54.817Z,64.48
2018-11-27T17:46:24.484Z,64.99
2018-11-27T17:48:53.827Z,64.57
2018-11-27T17:51:23.617Z,64.99
2018-11-27T17:53:52.996Z,66.16
2018-11-27T17:56:22.323Z,65.77
2018-11-27T17:58:51.810Z,66.16
2018-11-27T18:01:21.457Z,67.02
2018-11-27T18:03:50.769Z,66.38
2018-11-27T18:06:20.391Z,65.59
2018-11-27T18:08:49.888Z,65.13
2018-11-27T18:11:19.215Z,65.24
2018-11-27T18:13:49.036Z,66.23
2018-11-27T18:16:18.479Z,65.72
2018-11-27T18:18:47.807Z,66.60
2018-11-27T18:21:17.196Z,66.57
2018-11-27T18:23:46.653Z,67.68
2018-11-27T18:26:16.124Z,67.85
2018-11-27T18:28:45.471Z,67.33
2018-11-27T18:31:14.823Z,67.57
2018-11-27T18:33:44.165Z,67.56
2018-11-27T18:36:13.842Z,67.04
2018-11-27T18:38:43.169Z,67.37
2018-11-27T18:41:12.462Z,67.72
2018-11-27T18:43:41.825Z,67.40
2018-11-27T18:46:11.312Z,68.16
2018-11-27T18:48:40.767Z,67.76
2018-11-27T18:51:10.185Z,68.08
2018-11-27T18:53:39.575Z,67.23
2018-11-27T18:56:08.981Z,68.67
2018-11-27T18:58:38.693Z,69.39
2018-11-27T19:01:08.021Z,70.30
2018-11-27T19:03:37.615Z,69.93
2018-11-27T19:06:07.302Z,68.97
2018-11-27T19:08:36.812Z,68.70
2018-11-27T19:11:07.089Z,68.25
2018-11-27T19:13:36.055Z,67.43
2018-11-27T19:16:06.342Z,67.83
2018-11-27T19:18:35.850Z,67.34
2018-11-27T19:21:05.693Z,68.37
2018-11-27T19:23:35.144Z,68.19
2018-11-27T19:26:04.603Z,67.83
2018-11-27T19:28:34.005Z,68.32
2018-11-27T19:31:03.534Z,68.16
2018-11-27T19:33:32.970Z,68.63
2018-11-27T19:36:02.547Z,67.45
2018-11-27T19:38:31.935Z,66.97
2018-11-27T19:41:01.325Z,67.77
2018-11-27T19:43:30.799Z,67.08
2018-11-27T19:46:00.410Z,67.88
2018-11-27T19:48:29.804Z,68.22
2018-11-27T19:50:59.353Z,67.70
2018-11-27T19:53:28.797Z,66.85
2018-11-27T19:55:58.170Z,66.94
2018-11-27T19:58:27.645Z,67.28
2018-11-27T20:00:57.214Z,67.52
2018-11-27T20:03:26.650Z,67.51
2018-11-27T20:05:56.813Z,67.68
2018-11-27T20:08:26.241Z,66.64
2018-11-27T20:10:55.788Z,66.02
2018-11-27T20:13:25.252Z,66.77
2018-11-27T20:15:54.789Z,66.42
2018-11-27T20:18:24.239Z,66.65
2018-11-27T20:20:53.643Z,66.67
2018-11-27T20:23:23.107Z,66.24
2018-11-27T20:25:52.686Z,66.78
2018-11-27T20:28:22.307Z,67.13
2018-11-27T20:30:51.676Z,67.21
2018-11-27T20:33:21.324Z,66.60
2018-11-27T20:35:50.885Z,66.40
2018-11-27T20:38:20.239Z,67.06
2018-11-27T20:40:49.623Z,67.95
2018-11-27T20:43:18.996Z,67.16
2018-11-27T20:45:48.374Z,67.59
2018-11-27T20:48:20.257Z,67.16
2018-11-27T20:50:51.577Z,68.26
2018-11-27T20:53:21.063Z,68.40
2018-11-27T20:55:50.774Z,69.63
2018-11-27T20:58:20.155Z,69.45
2018-11-27T21:00:51.803Z,69.19
2018-11-27T21:03:21.833Z,69.56
2018-11-27T21:05:51.279Z,69.18
2018-11-27T21:08:20.722Z,68.93
2018-11-27T21:10:50.246Z,68.94
2018-11-27T21:13:20.372Z,69.42
2018-11-27T21:15:49.847Z,69.26
2018-11-27T21:18:19.189Z,69.73
2018-11-27T21:20:48.555Z,69.71
2018-11-27T21:23:17.991Z,70.17
2018-11-27T21:25:47.391Z,70.07
2018-11-27T21:28:18.493Z,70.24
2018-11-27T21:30:52.069Z,69.78
2018-11-27T21:33:21.402Z,69.86
2018-11-27T21:35:50.678Z,69.57
2018-11-27T21:38:20.014Z,70.68
2018-11-27T21:40:49.299Z,70.59
2018-11-27T21:43:18.714Z,70.30
2018-11-27T21:45:48.098Z,69.78
2018-11-27T21:48:17.395Z,69.62
2018-11-27T21:50:46.725Z,69.12
2018-11-27T21:53:16.423Z,68.99
2018-11-27T21:55:45.965Z,69.66
2018-11-27T21:58:15.334Z,69.04
2018-11-27T22:00:44.754Z,69.49
2018-11-27T22:03:14.124Z,69.22
2018-11-27T22:05:43.486Z,69.50
2018-11-27T22:08:12.838Z,70.58
2018-11-27T22:10:42.266Z,70.66
2018-11-27T22:13:14.856Z,70.87
2018-11-27T22:15:45.450Z,70.65
2018-11-27T22:18:15.239Z,70.01
2018-11-27T22:20:44.530Z,70.57
2018-11-27T22:23:13.912Z,72.06
2018-11-27T22:25:43.252Z,71.28
2018-11-27T22:28:12.620Z,72.22
2018-11-27T22:30:41.974Z,73.22
2018-11-27T22:33:11.251Z,72.72
2018-11-27T22:35:41.068Z,74.48
2018-11-27T22:38:10.332Z,75.18
2018-11-27T22:40:39.634Z,75.81
2018-11-27T22:43:09.145Z,75.78
2018-11-27T22:45:40.962Z,75.62
2018-11-27T22:48:12.235Z,76.85
2018-11-27T22:50:41.445Z,76.09
2018-11-27T22:53:10.941Z,76.52
2018-11-27T22:55:40.349Z,77.66
2018-11-27T22:58:09.975Z,77.37
2018-11-27T23:00:44.613Z,76.34
2018-11-27T23:03:13.936Z,77.47
2018-11-27T23:05:43.857Z,76.74
2018-11-27T23:08:13.180Z,77.50
2018-11-27T23:10:44.505Z,77.48
2018-11-27T23:13:14.140Z,75.77
2018-11-27T23:15:43.454Z,76.63
2018-11-27T23:18:12.817Z,76.84
2018-11-27T23:20:42.245Z,76.16
2018-11-27T23:23:11.600Z,76.23
2018-11-27T23:25:41.007Z,74.79
2018-11-27T23:28:10.367Z,74.52
2018-11-27T23:30:39.640Z,73.78
2018-11-27T23:33:08.939Z,74.03
2018-11-27T23:35:38.435Z,73.48
2018-11-27T23:38:07.715Z,73.84
2018-11-27T23:40:37.289Z,74.15
2018-11-27T23:43:07.091Z,73.87
2018-11-27T23:45:36.403Z,73.55
2018-11-27T23:48:05.975Z,72.72
2018-11-27T23:50:35.317Z,72.98
2018-11-27T23:53:04.616Z,73.32
2018-11-27T23:55:33.943Z,73.42
2018-11-27T23:58:03.361Z,72.76
